sensor_id;sensor_type;location;lat;lon;timestamp;temperature;humidity
14741;DHT22;7462;53.530;9.414;2022-09-09T00:01:53;15.10;99.90
14741;DHT22;7462;53.530;9.414;2022-09-09T00:04:26;15.10;99.90
14741;DHT22;7462;53.530;9.414;2022-09-09T00:07:00;15.10;99.90
14741;DHT22;7462;53.530;9.414;2022-09-09T00:09:34;15.20;99.90
14741;DHT22;7462;53.530;9.414;2022-09-09T00:12:10;15.20;99.90
14741;DHT22;7462;53.530;9.414;2022-09-09T00:14:46;15.20;99.90
14741;DHT22;7462;53.530;9.414;2022-09-09T00:17:28;15.20;99.90
14741;DHT22;7462;53.530;9.414;2022-09-09T00:20:04;15.10;99.90
14741;DHT22;7462;53.530;9.414;2022-09-09T00:22:36;15.10;99.90
14741;DHT22;7462;53.530;9.414;2022-09-09T00:25:11;15.10;99.90
14741;DHT22;7462;53.530;9.414;2022-09-09T00:27:43;15.10;99.90
14741;DHT22;7462;53.530;9.414;2022-09-09T00:30:17;15.00;99.90
14741;DHT22;7462;53.530;9.414;2022-09-09T00:32:50;15.00;99.90
14741;DHT22;7462;53.530;9.414;2022-09-09T00:35:23;15.00;99.90
14741;DHT22;7462;53.530;9.414;2022-09-09T00:37:55;14.90;99.90
14741;DHT22;7462;53.530;9.414;2022-09-09T00:40:29;14.80;99.90
14741;DHT22;7462;53.530;9.414;2022-09-09T00:43:26;14.90;99.90
14741;DHT22;7462;53.530;9.414;2022-09-09T00:46:20;14.80;99.90
14741;DHT22;7462;53.530;9.414;2022-09-09T00:49:00;14.80;99.90
14741;DHT22;7462;53.530;9.414;2022-09-09T00:51:41;14.80;99.90
14741;DHT22;7462;53.530;9.414;2022-09-09T00:54:28;14.80;99.90
14741;DHT22;7462;53.530;9.414;2022-09-09T01:00:20;14.80;99.90
14741;DHT22;7462;53.530;9.414;2022-09-09T01:03:14;14.80;99.90
14741;DHT22;7462;53.530;9.414;2022-09-09T01:05:54;14.80;99.90
14741;DHT22;7462;53.530;9.414;2022-09-09T01:08:48;14.80;99.90
14741;DHT22;7462;53.530;9.414;2022-09-09T01:11:24;14.80;99.90
14741;DHT22;7462;53.530;9.414;2022-09-09T01:14:01;14.80;99.90
14741;DHT22;7462;53.530;9.414;2022-09-09T01:16:33;14.80;99.90
14741;DHT22;7462;53.530;9.414;2022-09-09T01:19:03;14.70;99.90
14741;DHT22;7462;53.530;9.414;2022-09-09T01:21:39;14.70;99.90
14741;DHT22;7462;53.530;9.414;2022-09-09T01:24:24;14.70;99.90
14741;DHT22;7462;53.530;9.414;2022-09-09T01:27:06;14.70;99.90
14741;DHT22;7462;53.530;9.414;2022-09-09T01:29:36;14.70;99.90
14741;DHT22;7462;53.530;9.414;2022-09-09T01:32:38;14.60;99.90
14741;DHT22;7462;53.530;9.414;2022-09-09T01:35:11;14.60;99.90
14741;DHT22;7462;53.530;9.414;2022-09-09T01:37:41;14.60;99.90
14741;DHT22;7462;53.530;9.414;2022-09-09T01:40:09;14.50;99.90
14741;DHT22;7462;53.530;9.414;2022-09-09T01:42:39;14.50;99.90
14741;DHT22;7462;53.530;9.414;2022-09-09T01:45:08;14.50;99.90
14741;DHT22;7462;53.530;9.414;2022-09-09T01:47:37;14.50;99.90
14741;DHT22;7462;53.530;9.414;2022-09-09T01:50:17;14.50;99.90
14741;DHT22;7462;53.530;9.414;2022-09-09T01:52:48;14.50;99.90
14741;DHT22;7462;53.530;9.414;2022-09-09T01:55:29;14.50;99.90
14741;DHT22;7462;53.530;9.414;2022-09-09T01:58:23;14.50;99.90
14741;DHT22;7462;53.530;9.414;2022-09-09T02:01:04;14.50;99.90
14741;DHT22;7462;53.530;9.414;2022-09-09T02:03:35;14.50;99.90
14741;DHT22;7462;53.530;9.414;2022-09-09T02:06:17;14.50;99.90
14741;DHT22;7462;53.530;9.414;2022-09-09T02:08:56;14.40;99.90
14741;DHT22;7462;53.530;9.414;2022-09-09T02:11:25;14.50;99.90
14741;DHT22;7462;53.530;9.414;2022-09-09T02:14:08;14.40;99.90
14741;DHT22;7462;53.530;9.414;2022-09-09T02:16:42;14.50;99.90
14741;DHT22;7462;53.530;9.414;2022-09-09T02:19:14;14.40;99.90
14741;DHT22;7462;53.530;9.414;2022-09-09T02:22:00;14.40;99.90
14741;DHT22;7462;53.530;9.414;2022-09-09T02:24:30;14.30;99.90
14741;DHT22;7462;53.530;9.414;2022-09-09T02:27:13;14.40;99.90
14741;DHT22;7462;53.530;9.414;2022-09-09T02:29:45;14.40;99.90
14741;DHT22;7462;53.530;9.414;2022-09-09T02:32:19;14.30;99.90
14741;DHT22;7462;53.530;9.414;2022-09-09T02:34:49;14.30;99.90
14741;DHT22;7462;53.530;9.414;2022-09-09T02:37:23;14.30;99.90
14741;DHT22;7462;53.530;9.414;2022-09-09T02:39:53;14.30;99.90
14741;DHT22;7462;53.530;9.414;2022-09-09T02:42:22;14.30;99.90
14741;DHT22;7462;53.530;9.414;2022-09-09T02:44:54;14.30;99.90
14741;DHT22;7462;53.530;9.414;2022-09-09T02:47:29;14.30;99.90
14741;DHT22;7462;53.530;9.414;2022-09-09T02:50:11;14.20;99.90
14741;DHT22;7462;53.530;9.414;2022-09-09T02:52:52;14.20;99.90
14741;DHT22;7462;53.530;9.414;2022-09-09T02:55:26;14.30;99.90
14741;DHT22;7462;53.530;9.414;2022-09-09T02:57:59;14.30;99.90
14741;DHT22;7462;53.530;9.414;2022-09-09T03:00:33;14.30;99.90
14741;DHT22;7462;53.530;9.414;2022-09-09T03:03:03;14.20;99.90
14741;DHT22;7462;53.530;9.414;2022-09-09T03:05:33;14.20;99.90
14741;DHT22;7462;53.530;9.414;2022-09-09T03:08:01;14.20;99.90
14741;DHT22;7462;53.530;9.414;2022-09-09T03:10:30;14.20;99.90
14741;DHT22;7462;53.530;9.414;2022-09-09T03:12:58;14.20;99.90
14741;DHT22;7462;53.530;9.414;2022-09-09T03:15:29;14.20;99.90
14741;DHT22;7462;53.530;9.414;2022-09-09T03:17:59;14.20;99.90
14741;DHT22;7462;53.530;9.414;2022-09-09T03:20:30;14.30;99.90
14741;DHT22;7462;53.530;9.414;2022-09-09T03:22:59;14.20;99.90
14741;DHT22;7462;53.530;9.414;2022-09-09T03:25:28;14.20;99.90
14741;DHT22;7462;53.530;9.414;2022-09-09T03:27:56;14.20;99.90
14741;DHT22;7462;53.530;9.414;2022-09-09T03:30:26;14.20;99.90
14741;DHT22;7462;53.530;9.414;2022-09-09T03:32:56;14.30;99.90
14741;DHT22;7462;53.530;9.414;2022-09-09T03:35:31;14.30;99.90
14741;DHT22;7462;53.530;9.414;2022-09-09T03:37:59;14.20;99.90
14741;DHT22;7462;53.530;9.414;2022-09-09T03:40:30;14.30;99.90
14741;DHT22;7462;53.530;9.414;2022-09-09T03:42:58;14.20;99.90
14741;DHT22;7462;53.530;9.414;2022-09-09T03:45:27;14.10;99.90
14741;DHT22;7462;53.530;9.414;2022-09-09T03:47:55;14.10;99.90
14741;DHT22;7462;53.530;9.414;2022-09-09T03:50:24;14.10;99.90
14741;DHT22;7462;53.530;9.414;2022-09-09T03:52:53;14.10;99.90
14741;DHT22;7462;53.530;9.414;2022-09-09T03:55:21;14.10;99.90
14741;DHT22;7462;53.530;9.414;2022-09-09T03:57:50;14.10;99.90
14741;DHT22;7462;53.530;9.414;2022-09-09T04:00:19;14.10;99.90
14741;DHT22;7462;53.530;9.414;2022-09-09T04:02:51;14.10;99.90
14741;DHT22;7462;53.530;9.414;2022-09-09T04:05:20;14.10;99.90
14741;DHT22;7462;53.530;9.414;2022-09-09T04:07:48;14.10;99.90
14741;DHT22;7462;53.530;9.414;2022-09-09T04:10:19;14.00;99.90
14741;DHT22;7462;53.530;9.414;2022-09-09T04:12:48;14.00;99.90
14741;DHT22;7462;53.530;9.414;2022-09-09T04:15:16;14.00;99.90
14741;DHT22;7462;53.530;9.414;2022-09-09T04:17:45;14.00;99.90
14741;DHT22;7462;53.530;9.414;2022-09-09T04:20:14;13.90;99.90
14741;DHT22;7462;53.530;9.414;2022-09-09T04:22:42;14.00;99.90
14741;DHT22;7462;53.530;9.414;2022-09-09T04:25:10;14.00;99.90
14741;DHT22;7462;53.530;9.414;2022-09-09T04:27:39;14.00;99.90
14741;DHT22;7462;53.530;9.414;2022-09-09T04:30:10;14.00;99.90
14741;DHT22;7462;53.530;9.414;2022-09-09T04:32:40;14.00;99.90
14741;DHT22;7462;53.530;9.414;2022-09-09T04:35:08;14.00;99.90
14741;DHT22;7462;53.530;9.414;2022-09-09T04:37:36;14.00;99.90
14741;DHT22;7462;53.530;9.414;2022-09-09T04:40:06;14.00;99.90
14741;DHT22;7462;53.530;9.414;2022-09-09T04:42:36;14.00;99.90
14741;DHT22;7462;53.530;9.414;2022-09-09T04:45:07;14.00;99.90
14741;DHT22;7462;53.530;9.414;2022-09-09T04:47:37;14.00;99.90
14741;DHT22;7462;53.530;9.414;2022-09-09T04:50:07;14.00;99.90
14741;DHT22;7462;53.530;9.414;2022-09-09T04:52:35;14.00;99.90
14741;DHT22;7462;53.530;9.414;2022-09-09T04:55:05;14.00;99.90
14741;DHT22;7462;53.530;9.414;2022-09-09T04:57:34;14.00;99.90
14741;DHT22;7462;53.530;9.414;2022-09-09T05:00:03;14.00;99.90
14741;DHT22;7462;53.530;9.414;2022-09-09T05:02:38;14.00;99.90
14741;DHT22;7462;53.530;9.414;2022-09-09T05:05:07;14.00;99.90
14741;DHT22;7462;53.530;9.414;2022-09-09T05:07:35;14.00;99.90
14741;DHT22;7462;53.530;9.414;2022-09-09T05:10:04;14.10;99.90
14741;DHT22;7462;53.530;9.414;2022-09-09T05:12:32;14.00;99.90
14741;DHT22;7462;53.530;9.414;2022-09-09T05:15:01;14.10;99.90
14741;DHT22;7462;53.530;9.414;2022-09-09T05:17:29;14.00;99.90
14741;DHT22;7462;53.530;9.414;2022-09-09T05:19:59;14.10;99.90
14741;DHT22;7462;53.530;9.414;2022-09-09T05:22:29;14.20;99.90
14741;DHT22;7462;53.530;9.414;2022-09-09T05:24:58;14.20;99.90
14741;DHT22;7462;53.530;9.414;2022-09-09T05:27:26;14.20;99.90
14741;DHT22;7462;53.530;9.414;2022-09-09T05:29:55;14.30;99.90
14741;DHT22;7462;53.530;9.414;2022-09-09T05:32:24;14.20;99.90
14741;DHT22;7462;53.530;9.414;2022-09-09T05:34:52;14.20;99.90
14741;DHT22;7462;53.530;9.414;2022-09-09T05:37:22;14.30;99.90
14741;DHT22;7462;53.530;9.414;2022-09-09T05:39:50;14.30;99.90
14741;DHT22;7462;53.530;9.414;2022-09-09T05:42:20;14.30;99.90
14741;DHT22;7462;53.530;9.414;2022-09-09T05:44:48;14.30;99.90
14741;DHT22;7462;53.530;9.414;2022-09-09T05:47:17;14.30;99.90
14741;DHT22;7462;53.530;9.414;2022-09-09T05:49:45;14.30;99.90
14741;DHT22;7462;53.530;9.414;2022-09-09T05:52:13;14.40;99.90
14741;DHT22;7462;53.530;9.414;2022-09-09T05:54:43;14.50;99.90
14741;DHT22;7462;53.530;9.414;2022-09-09T05:57:11;14.40;99.90
14741;DHT22;7462;53.530;9.414;2022-09-09T05:59:46;14.40;99.90
14741;DHT22;7462;53.530;9.414;2022-09-09T06:02:14;14.50;99.90
14741;DHT22;7462;53.530;9.414;2022-09-09T06:04:42;14.50;99.90
14741;DHT22;7462;53.530;9.414;2022-09-09T06:07:11;14.50;99.90
14741;DHT22;7462;53.530;9.414;2022-09-09T06:09:42;14.50;99.90
14741;DHT22;7462;53.530;9.414;2022-09-09T06:12:11;14.60;99.90
14741;DHT22;7462;53.530;9.414;2022-09-09T06:14:39;14.50;99.90
14741;DHT22;7462;53.530;9.414;2022-09-09T06:17:13;14.50;99.90
14741;DHT22;7462;53.530;9.414;2022-09-09T06:19:41;14.60;99.90
14741;DHT22;7462;53.530;9.414;2022-09-09T06:22:09;14.60;99.90
14741;DHT22;7462;53.530;9.414;2022-09-09T06:24:39;14.60;99.90
14741;DHT22;7462;53.530;9.414;2022-09-09T06:27:08;14.60;99.90
14741;DHT22;7462;53.530;9.414;2022-09-09T06:29:37;14.60;99.90
14741;DHT22;7462;53.530;9.414;2022-09-09T06:32:05;14.60;99.90
14741;DHT22;7462;53.530;9.414;2022-09-09T06:34:35;14.60;99.90
14741;DHT22;7462;53.530;9.414;2022-09-09T06:37:03;14.70;99.90
14741;DHT22;7462;53.530;9.414;2022-09-09T06:39:38;14.70;99.90
14741;DHT22;7462;53.530;9.414;2022-09-09T06:42:08;14.80;99.90
14741;DHT22;7462;53.530;9.414;2022-09-09T06:44:48;14.80;99.90
14741;DHT22;7462;53.530;9.414;2022-09-09T06:47:23;14.90;99.90
14741;DHT22;7462;53.530;9.414;2022-09-09T06:49:52;14.90;99.90
14741;DHT22;7462;53.530;9.414;2022-09-09T06:52:20;14.90;99.90
14741;DHT22;7462;53.530;9.414;2022-09-09T06:54:49;14.90;99.90
14741;DHT22;7462;53.530;9.414;2022-09-09T06:57:19;14.90;99.90
14741;DHT22;7462;53.530;9.414;2022-09-09T07:00:05;15.00;99.90
14741;DHT22;7462;53.530;9.414;2022-09-09T07:02:33;15.00;99.90
14741;DHT22;7462;53.530;9.414;2022-09-09T07:05:06;15.10;99.90
14741;DHT22;7462;53.530;9.414;2022-09-09T07:07:35;15.10;99.90
14741;DHT22;7462;53.530;9.414;2022-09-09T07:10:05;15.20;99.90
14741;DHT22;7462;53.530;9.414;2022-09-09T07:12:37;15.20;99.90
14741;DHT22;7462;53.530;9.414;2022-09-09T07:15:09;15.20;99.90
14741;DHT22;7462;53.530;9.414;2022-09-09T07:17:40;15.30;99.90
14741;DHT22;7462;53.530;9.414;2022-09-09T07:20:09;15.30;99.90
14741;DHT22;7462;53.530;9.414;2022-09-09T07:22:37;15.30;99.90
14741;DHT22;7462;53.530;9.414;2022-09-09T07:25:06;15.40;99.90
14741;DHT22;7462;53.530;9.414;2022-09-09T07:27:37;15.40;99.90
14741;DHT22;7462;53.530;9.414;2022-09-09T07:30:06;15.50;99.90
14741;DHT22;7462;53.530;9.414;2022-09-09T07:32:34;15.50;99.90
14741;DHT22;7462;53.530;9.414;2022-09-09T07:35:03;15.50;99.90
14741;DHT22;7462;53.530;9.414;2022-09-09T07:37:31;15.50;99.90
14741;DHT22;7462;53.530;9.414;2022-09-09T07:39:59;15.60;99.90
14741;DHT22;7462;53.530;9.414;2022-09-09T07:42:29;15.80;99.90
14741;DHT22;7462;53.530;9.414;2022-09-09T07:44:59;16.00;99.90
14741;DHT22;7462;53.530;9.414;2022-09-09T07:47:28;16.20;99.90
14741;DHT22;7462;53.530;9.414;2022-09-09T07:49:56;16.40;99.90
14741;DHT22;7462;53.530;9.414;2022-09-09T07:52:29;16.50;99.90
14741;DHT22;7462;53.530;9.414;2022-09-09T07:55:01;16.50;99.90
14741;DHT22;7462;53.530;9.414;2022-09-09T07:57:32;16.60;99.90
14741;DHT22;7462;53.530;9.414;2022-09-09T08:00:04;16.60;99.90
14741;DHT22;7462;53.530;9.414;2022-09-09T08:02:38;16.80;99.90
14741;DHT22;7462;53.530;9.414;2022-09-09T08:05:08;16.80;99.90
14741;DHT22;7462;53.530;9.414;2022-09-09T08:07:38;17.00;99.90
14741;DHT22;7462;53.530;9.414;2022-09-09T08:10:07;17.20;99.90
14741;DHT22;7462;53.530;9.414;2022-09-09T08:12:37;17.30;99.90
14741;DHT22;7462;53.530;9.414;2022-09-09T08:15:15;17.50;99.90
14741;DHT22;7462;53.530;9.414;2022-09-09T08:17:43;17.40;99.90
14741;DHT22;7462;53.530;9.414;2022-09-09T08:20:12;17.40;99.90
14741;DHT22;7462;53.530;9.414;2022-09-09T08:22:41;17.40;99.90
14741;DHT22;7462;53.530;9.414;2022-09-09T08:25:09;17.40;99.90
14741;DHT22;7462;53.530;9.414;2022-09-09T08:27:37;17.30;99.90
14741;DHT22;7462;53.530;9.414;2022-09-09T08:30:07;17.30;99.90
14741;DHT22;7462;53.530;9.414;2022-09-09T08:32:36;17.40;99.90
14741;DHT22;7462;53.530;9.414;2022-09-09T08:35:09;17.70;99.90
14741;DHT22;7462;53.530;9.414;2022-09-09T08:37:37;17.80;99.90
14741;DHT22;7462;53.530;9.414;2022-09-09T08:40:09;18.00;99.90
14741;DHT22;7462;53.530;9.414;2022-09-09T08:42:49;18.00;99.90
14741;DHT22;7462;53.530;9.414;2022-09-09T08:45:25;18.20;99.90
14741;DHT22;7462;53.530;9.414;2022-09-09T08:48:21;18.40;99.90
14741;DHT22;7462;53.530;9.414;2022-09-09T08:50:50;18.80;99.90
14741;DHT22;7462;53.530;9.414;2022-09-09T08:53:27;19.30;99.90
14741;DHT22;7462;53.530;9.414;2022-09-09T08:55:59;19.70;99.90
14741;DHT22;7462;53.530;9.414;2022-09-09T08:58:43;20.20;99.90
14741;DHT22;7462;53.530;9.414;2022-09-09T09:01:30;20.60;99.90
14741;DHT22;7462;53.530;9.414;2022-09-09T09:04:10;20.90;99.90
14741;DHT22;7462;53.530;9.414;2022-09-09T09:06:47;21.20;99.90
14741;DHT22;7462;53.530;9.414;2022-09-09T09:09:22;21.30;99.90
14741;DHT22;7462;53.530;9.414;2022-09-09T09:11:55;21.50;99.90
14741;DHT22;7462;53.530;9.414;2022-09-09T09:14:34;21.60;99.90
14741;DHT22;7462;53.530;9.414;2022-09-09T09:17:11;21.90;99.90
14741;DHT22;7462;53.530;9.414;2022-09-09T09:19:43;22.10;99.90
14741;DHT22;7462;53.530;9.414;2022-09-09T09:22:17;22.30;99.90
14741;DHT22;7462;53.530;9.414;2022-09-09T09:24:52;22.30;99.90
14741;DHT22;7462;53.530;9.414;2022-09-09T09:27:31;22.00;99.90
14741;DHT22;7462;53.530;9.414;2022-09-09T09:30:05;21.90;99.90
14741;DHT22;7462;53.530;9.414;2022-09-09T09:32:56;21.70;99.90
14741;DHT22;7462;53.530;9.414;2022-09-09T09:35:28;21.40;99.90
14741;DHT22;7462;53.530;9.414;2022-09-09T09:37:56;21.10;99.90
14741;DHT22;7462;53.530;9.414;2022-09-09T09:40:49;20.90;99.90
14741;DHT22;7462;53.530;9.414;2022-09-09T09:43:23;20.80;99.90
14741;DHT22;7462;53.530;9.414;2022-09-09T09:45:52;20.70;99.90
14741;DHT22;7462;53.530;9.414;2022-09-09T09:48:40;20.70;99.90
14741;DHT22;7462;53.530;9.414;2022-09-09T09:51:11;20.80;99.90
14741;DHT22;7462;53.530;9.414;2022-09-09T09:53:43;21.10;99.90
14741;DHT22;7462;53.530;9.414;2022-09-09T09:56:14;21.40;99.90
14741;DHT22;7462;53.530;9.414;2022-09-09T09:58:50;21.40;99.90
14741;DHT22;7462;53.530;9.414;2022-09-09T10:01:27;21.30;99.90
14741;DHT22;7462;53.530;9.414;2022-09-09T10:03:59;21.60;99.90
14741;DHT22;7462;53.530;9.414;2022-09-09T10:06:32;22.10;99.90
14741;DHT22;7462;53.530;9.414;2022-09-09T10:09:02;22.40;99.90
14741;DHT22;7462;53.530;9.414;2022-09-09T10:11:41;22.90;99.90
14741;DHT22;7462;53.530;9.414;2022-09-09T10:14:20;23.30;99.90
14741;DHT22;7462;53.530;9.414;2022-09-09T10:17:01;23.70;99.90
14741;DHT22;7462;53.530;9.414;2022-09-09T10:19:34;24.00;99.90
14741;DHT22;7462;53.530;9.414;2022-09-09T10:22:14;24.20;99.90
14741;DHT22;7462;53.530;9.414;2022-09-09T10:27:48;23.80;99.90
14741;DHT22;7462;53.530;9.414;2022-09-09T10:30:34;24.10;99.90
14741;DHT22;7462;53.530;9.414;2022-09-09T10:33:15;23.90;99.90
14741;DHT22;7462;53.530;9.414;2022-09-09T10:35:53;23.50;99.90
14741;DHT22;7462;53.530;9.414;2022-09-09T10:38:31;23.10;99.90
14741;DHT22;7462;53.530;9.414;2022-09-09T10:41:12;22.70;99.90
14741;DHT22;7462;53.530;9.414;2022-09-09T10:44:03;22.30;99.90
14741;DHT22;7462;53.530;9.414;2022-09-09T10:46:39;22.20;99.90
14741;DHT22;7462;53.530;9.414;2022-09-09T10:49:20;22.40;99.90
14741;DHT22;7462;53.530;9.414;2022-09-09T10:52:00;22.40;99.90
14741;DHT22;7462;53.530;9.414;2022-09-09T10:54:42;22.60;99.90
14741;DHT22;7462;53.530;9.414;2022-09-09T10:57:17;22.80;99.90
14741;DHT22;7462;53.530;9.414;2022-09-09T10:59:48;22.60;99.90
14741;DHT22;7462;53.530;9.414;2022-09-09T11:02:25;23.00;99.90
14741;DHT22;7462;53.530;9.414;2022-09-09T11:04:58;23.10;99.90
14741;DHT22;7462;53.530;9.414;2022-09-09T11:07:33;22.60;99.90
14741;DHT22;7462;53.530;9.414;2022-09-09T11:10:07;22.90;99.90
14741;DHT22;7462;53.530;9.414;2022-09-09T11:12:43;23.70;99.90
14741;DHT22;7462;53.530;9.414;2022-09-09T11:15:17;24.40;99.90
14741;DHT22;7462;53.530;9.414;2022-09-09T11:17:49;24.40;99.90
14741;DHT22;7462;53.530;9.414;2022-09-09T11:20:18;24.40;99.90
14741;DHT22;7462;53.530;9.414;2022-09-09T11:22:50;24.50;99.90
14741;DHT22;7462;53.530;9.414;2022-09-09T11:25:23;24.20;99.90
14741;DHT22;7462;53.530;9.414;2022-09-09T11:31:04;23.80;99.90
14741;DHT22;7462;53.530;9.414;2022-09-09T11:33:59;23.60;99.90
14741;DHT22;7462;53.530;9.414;2022-09-09T11:36:49;23.70;99.90
14741;DHT22;7462;53.530;9.414;2022-09-09T11:42:27;24.80;99.90
14741;DHT22;7462;53.530;9.414;2022-09-09T11:44:55;25.40;99.90
14741;DHT22;7462;53.530;9.414;2022-09-09T11:47:26;25.50;99.90
14741;DHT22;7462;53.530;9.414;2022-09-09T11:50:22;25.40;99.90
14741;DHT22;7462;53.530;9.414;2022-09-09T11:53:20;25.00;99.90
14741;DHT22;7462;53.530;9.414;2022-09-09T11:56:10;24.40;99.90
14741;DHT22;7462;53.530;9.414;2022-09-09T11:58:43;23.90;99.90
14741;DHT22;7462;53.530;9.414;2022-09-09T12:01:28;23.70;99.90
14741;DHT22;7462;53.530;9.414;2022-09-09T12:06:51;23.40;99.90
14741;DHT22;7462;53.530;9.414;2022-09-09T12:09:25;23.40;99.90
14741;DHT22;7462;53.530;9.414;2022-09-09T12:12:06;23.40;99.90
14741;DHT22;7462;53.530;9.414;2022-09-09T12:14:38;23.40;99.90
14741;DHT22;7462;53.530;9.414;2022-09-09T12:17:17;23.30;99.90
14741;DHT22;7462;53.530;9.414;2022-09-09T12:19:47;23.30;99.90
14741;DHT22;7462;53.530;9.414;2022-09-09T12:22:22;23.20;99.90
14741;DHT22;7462;53.530;9.414;2022-09-09T12:24:58;23.20;99.90
14741;DHT22;7462;53.530;9.414;2022-09-09T12:27:33;23.10;99.90
14741;DHT22;7462;53.530;9.414;2022-09-09T12:30:09;23.00;99.90
14741;DHT22;7462;53.530;9.414;2022-09-09T12:32:39;22.80;99.90
14741;DHT22;7462;53.530;9.414;2022-09-09T12:35:11;22.60;99.90
14741;DHT22;7462;53.530;9.414;2022-09-09T12:37:41;22.40;99.90
14741;DHT22;7462;53.530;9.414;2022-09-09T12:40:21;22.30;99.90
14741;DHT22;7462;53.530;9.414;2022-09-09T12:42:50;22.20;99.90
14741;DHT22;7462;53.530;9.414;2022-09-09T12:45:21;22.10;99.90
14741;DHT22;7462;53.530;9.414;2022-09-09T12:47:55;21.80;99.90
14741;DHT22;7462;53.530;9.414;2022-09-09T12:50:25;21.60;99.90
14741;DHT22;7462;53.530;9.414;2022-09-09T12:52:56;21.30;99.90
14741;DHT22;7462;53.530;9.414;2022-09-09T12:55:29;21.00;99.90
14741;DHT22;7462;53.530;9.414;2022-09-09T12:57:58;20.80;99.90
14741;DHT22;7462;53.530;9.414;2022-09-09T13:00:28;20.80;99.90
14741;DHT22;7462;53.530;9.414;2022-09-09T13:02:58;20.60;99.90
14741;DHT22;7462;53.530;9.414;2022-09-09T13:05:34;20.60;99.90
14741;DHT22;7462;53.530;9.414;2022-09-09T13:08:03;20.50;99.90
14741;DHT22;7462;53.530;9.414;2022-09-09T13:10:33;20.50;99.90
14741;DHT22;7462;53.530;9.414;2022-09-09T13:13:23;20.50;99.90
14741;DHT22;7462;53.530;9.414;2022-09-09T13:15:54;20.50;99.90
14741;DHT22;7462;53.530;9.414;2022-09-09T13:18:24;20.70;99.90
14741;DHT22;7462;53.530;9.414;2022-09-09T13:20:55;20.80;99.90
14741;DHT22;7462;53.530;9.414;2022-09-09T13:23:27;20.90;99.90
14741;DHT22;7462;53.530;9.414;2022-09-09T13:25:58;20.90;99.90
14741;DHT22;7462;53.530;9.414;2022-09-09T13:28:28;21.00;99.90
14741;DHT22;7462;53.530;9.414;2022-09-09T13:31:02;21.10;99.90
14741;DHT22;7462;53.530;9.414;2022-09-09T13:33:33;21.10;99.90
14741;DHT22;7462;53.530;9.414;2022-09-09T13:36:06;21.20;99.90
14741;DHT22;7462;53.530;9.414;2022-09-09T13:38:36;21.10;99.90
14741;DHT22;7462;53.530;9.414;2022-09-09T13:41:06;21.20;99.90
14741;DHT22;7462;53.530;9.414;2022-09-09T13:43:37;21.20;99.90
14741;DHT22;7462;53.530;9.414;2022-09-09T13:46:25;21.20;99.90
14741;DHT22;7462;53.530;9.414;2022-09-09T13:48:55;21.30;99.90
14741;DHT22;7462;53.530;9.414;2022-09-09T13:51:35;21.30;99.90
14741;DHT22;7462;53.530;9.414;2022-09-09T13:54:04;21.40;99.90
14741;DHT22;7462;53.530;9.414;2022-09-09T13:56:33;21.50;99.90
14741;DHT22;7462;53.530;9.414;2022-09-09T13:59:02;21.50;99.90
14741;DHT22;7462;53.530;9.414;2022-09-09T14:01:31;21.50;99.90
14741;DHT22;7462;53.530;9.414;2022-09-09T14:04:02;21.40;99.90
14741;DHT22;7462;53.530;9.414;2022-09-09T14:06:30;21.40;99.90
14741;DHT22;7462;53.530;9.414;2022-09-09T14:08:59;21.40;99.90
14741;DHT22;7462;53.530;9.414;2022-09-09T14:11:27;21.30;99.90
14741;DHT22;7462;53.530;9.414;2022-09-09T14:13:55;21.20;99.90
14741;DHT22;7462;53.530;9.414;2022-09-09T14:16:23;21.20;99.90
14741;DHT22;7462;53.530;9.414;2022-09-09T14:18:55;21.10;99.90
14741;DHT22;7462;53.530;9.414;2022-09-09T14:21:24;21.10;99.90
14741;DHT22;7462;53.530;9.414;2022-09-09T14:23:52;21.10;99.90
14741;DHT22;7462;53.530;9.414;2022-09-09T14:26:20;21.10;99.90
14741;DHT22;7462;53.530;9.414;2022-09-09T14:28:49;20.90;99.90
14741;DHT22;7462;53.530;9.414;2022-09-09T14:31:21;20.70;99.90
14741;DHT22;7462;53.530;9.414;2022-09-09T14:33:50;20.70;99.90
14741;DHT22;7462;53.530;9.414;2022-09-09T14:36:20;20.60;99.90
14741;DHT22;7462;53.530;9.414;2022-09-09T14:38:49;20.50;99.90
14741;DHT22;7462;53.530;9.414;2022-09-09T14:41:19;20.40;99.90
14741;DHT22;7462;53.530;9.414;2022-09-09T14:43:49;20.30;99.90
14741;DHT22;7462;53.530;9.414;2022-09-09T14:46:19;20.30;99.90
14741;DHT22;7462;53.530;9.414;2022-09-09T14:48:48;20.40;99.90
14741;DHT22;7462;53.530;9.414;2022-09-09T14:51:17;20.40;99.90
14741;DHT22;7462;53.530;9.414;2022-09-09T14:53:51;20.20;99.90
14741;DHT22;7462;53.530;9.414;2022-09-09T14:56:21;20.20;99.90
14741;DHT22;7462;53.530;9.414;2022-09-09T14:58:49;20.20;99.90
14741;DHT22;7462;53.530;9.414;2022-09-09T15:01:19;20.40;99.90
14741;DHT22;7462;53.530;9.414;2022-09-09T15:03:50;20.40;99.90
14741;DHT22;7462;53.530;9.414;2022-09-09T15:06:19;20.40;99.90
14741;DHT22;7462;53.530;9.414;2022-09-09T15:08:50;20.50;99.90
14741;DHT22;7462;53.530;9.414;2022-09-09T15:11:20;20.60;99.90
14741;DHT22;7462;53.530;9.414;2022-09-09T15:13:51;20.60;99.90
14741;DHT22;7462;53.530;9.414;2022-09-09T15:16:21;20.60;99.90
14741;DHT22;7462;53.530;9.414;2022-09-09T15:18:51;20.60;99.90
14741;DHT22;7462;53.530;9.414;2022-09-09T15:21:22;20.70;99.90
14741;DHT22;7462;53.530;9.414;2022-09-09T15:23:52;20.70;99.90
14741;DHT22;7462;53.530;9.414;2022-09-09T15:26:20;20.70;99.90
14741;DHT22;7462;53.530;9.414;2022-09-09T15:28:49;20.70;99.90
14741;DHT22;7462;53.530;9.414;2022-09-09T15:31:19;20.60;99.90
14741;DHT22;7462;53.530;9.414;2022-09-09T15:33:48;20.60;99.90
14741;DHT22;7462;53.530;9.414;2022-09-09T15:36:18;20.60;99.90
14741;DHT22;7462;53.530;9.414;2022-09-09T15:38:46;20.60;99.90
14741;DHT22;7462;53.530;9.414;2022-09-09T15:41:16;20.50;99.90
14741;DHT22;7462;53.530;9.414;2022-09-09T15:43:45;20.50;99.90
14741;DHT22;7462;53.530;9.414;2022-09-09T15:46:26;20.40;99.90
14741;DHT22;7462;53.530;9.414;2022-09-09T15:48:56;20.40;99.90
14741;DHT22;7462;53.530;9.414;2022-09-09T15:51:25;20.30;99.90
14741;DHT22;7462;53.530;9.414;2022-09-09T15:54:09;20.30;99.90
14741;DHT22;7462;53.530;9.414;2022-09-09T15:56:40;20.20;99.90
14741;DHT22;7462;53.530;9.414;2022-09-09T15:59:08;20.20;99.90
14741;DHT22;7462;53.530;9.414;2022-09-09T16:01:37;20.10;99.90
14741;DHT22;7462;53.530;9.414;2022-09-09T16:04:06;20.10;99.90
14741;DHT22;7462;53.530;9.414;2022-09-09T16:06:34;20.00;99.90
14741;DHT22;7462;53.530;9.414;2022-09-09T16:09:04;19.90;99.90
14741;DHT22;7462;53.530;9.414;2022-09-09T16:11:35;19.90;99.90
14741;DHT22;7462;53.530;9.414;2022-09-09T16:14:05;19.80;99.90
14741;DHT22;7462;53.530;9.414;2022-09-09T16:16:34;19.60;99.90
14741;DHT22;7462;53.530;9.414;2022-09-09T16:19:04;19.50;99.90
14741;DHT22;7462;53.530;9.414;2022-09-09T16:21:35;19.50;99.90
14741;DHT22;7462;53.530;9.414;2022-09-09T16:24:06;19.40;99.90
14741;DHT22;7462;53.530;9.414;2022-09-09T16:26:36;19.40;99.90
14741;DHT22;7462;53.530;9.414;2022-09-09T16:29:06;19.40;99.90
14741;DHT22;7462;53.530;9.414;2022-09-09T16:31:38;19.30;99.90
14741;DHT22;7462;53.530;9.414;2022-09-09T16:34:07;19.30;99.90
14741;DHT22;7462;53.530;9.414;2022-09-09T16:36:37;19.30;99.90